Time;durP1;ratioP1;P1;durP2;ratioP2;P2;SDS_P1;SDS_P2;PMS_P1;PMS_P2;Temp;Humidity;BMP_temperature;BMP_pressure;BME280_temperature;BME280_humidity;BME280_pressure;Samples;Min_cycle;Max_cycle;Signal;HPM_P1;HPM_P2
2022/11/21 00:01:21;;;;;;;33.43;21.83;;;3.70;99.90;;;;;;2615218;39;20840;-80
2022/11/21 00:07:55;;;;;;;31.37;20.70;;;3.60;99.90;;;;;;2613856;54;20487;-79
2022/11/21 00:13:42;;;;;;;33.13;20.13;;;3.50;99.90;;;;;;2614523;54;20453;-79
2022/11/21 00:19:29;;;;;;;33.70;22.30;;;3.60;99.90;;;;;;2613768;54;20797;-78
2022/11/21 00:25:16;;;;;;;30.27;20.07;;;3.50;99.90;;;;;;2614705;54;20636;-80
2022/11/21 00:31:05;;;;;;;38.57;23.60;;;3.50;99.90;;;;;;2614720;54;20129;-77
2022/11/21 00:36:52;;;;;;;33.07;21.73;;;3.50;99.90;;;;;;2613979;54;20394;-80
2022/11/21 00:42:39;;;;;;;31.47;19.90;;;3.60;99.90;;;;;;2614359;54;20169;-78
2022/11/21 00:48:26;;;;;;;37.70;25.00;;;3.50;99.90;;;;;;2614543;54;20121;-79
2022/11/21 00:54:15;;;;;;;40.47;23.80;;;3.50;99.90;;;;;;2614917;46;20157;-79
2022/11/21 01:00:04;;;;;;;39.37;22.10;;;3.40;99.90;;;;;;2614755;54;20491;-79
2022/11/21 01:03:25;;;;;;;34.13;20.93;;;3.40;99.90;;;;;;2614817;47;20410;-81
2022/11/21 01:05:51;;;;;;;36.33;22.63;;;3.40;99.90;;;;;;2612598;54;20446;-80
2022/11/21 01:14:59;;;;;;;40.70;22.07;;;3.30;99.90;;;;;;2614418;54;21037;-80
2022/11/21 01:20:47;;;;;;;39.93;22.20;;;3.30;99.90;;;;;;2614374;54;20143;-79
2022/11/21 01:26:36;;;;;;;36.37;22.40;;;3.40;99.90;;;;;;2614710;39;20808;-79
2022/11/21 01:32:24;;;;;;;40.50;22.87;;;3.30;99.90;;;;;;2614827;54;20947;-78
2022/11/21 01:38:12;;;;;;;36.03;21.50;;;3.30;99.90;;;;;;2615762;39;20536;-81
2022/11/21 01:44:02;;;;;;;31.60;20.90;;;3.40;99.90;;;;;;2615346;54;20146;-79
2022/11/21 01:49:51;;;;;;;34.00;22.23;;;3.30;99.90;;;;;;2614307;54;20394;-79
2022/11/21 01:55:38;;;;;;;43.97;25.30;;;3.20;99.90;;;;;;2614021;54;20389;-78
2022/11/21 02:01:26;;;;;;;44.80;25.37;;;3.30;99.90;;;;;;2614850;54;20150;-76
2022/11/21 02:03:54;;;;;;;42.93;26.80;;;3.30;99.90;;;;;;2615607;39;20744;-77
2022/11/21 02:06:20;;;;;;;41.47;25.40;;;3.30;99.90;;;;;;2615115;47;20419;-76
2022/11/21 02:15:54;;;;;;;39.53;24.70;;;3.20;99.90;;;;;;2615556;47;21138;-76
2022/11/21 02:28:10;;;;;;;31.77;23.50;;;3.30;99.90;;;;;;2615696;54;20378;-76
2022/11/21 02:33:58;;;;;;;41.87;26.93;;;3.30;99.90;;;;;;2615053;54;20434;-74
2022/11/21 02:39:46;;;;;;;45.53;26.50;;;3.20;99.90;;;;;;2615726;54;20172;-78
2022/11/21 02:45:38;;;;;;;43.67;28.03;;;3.40;99.90;;;;;;2613619;54;20936;-78
2022/11/21 02:48:56;;;;;;;41.43;27.07;;;3.30;99.90;;;;;;2614434;47;20423;-80
2022/11/21 02:54:43;;;;;;;45.90;29.17;;;3.40;99.90;;;;;;2614320;39;20867;-79
2022/11/21 03:00:31;;;;;;;46.30;27.30;;;3.30;99.90;;;;;;2615528;39;20948;-79
2022/11/21 03:03:46;;;;;;;52.97;28.83;;;3.30;99.90;;;;;;2614895;54;20498;-81
2022/11/21 03:06:12;;;;;;;44.00;29.00;;;3.30;99.90;;;;;;2614914;54;20425;-80
2022/11/21 03:18:14;;;;;;;49.80;28.77;;;3.30;99.90;;;;;;2615649;54;20460;-79
2022/11/21 03:24:01;;;;;;;51.07;28.70;;;3.30;99.90;;;;;;2615600;54;20150;-79
2022/11/21 03:29:52;;;;;;;40.97;26.00;;;3.40;99.90;;;;;;2616859;54;20151;-77
2022/11/21 03:35:40;;;;;;;47.50;28.37;;;3.40;99.90;;;;;;2617737;54;20399;-76
2022/11/21 03:41:28;;;;;;;48.67;31.50;;;3.30;99.90;;;;;;2617603;54;20230;-76
2022/11/21 03:47:16;;;;;;;52.33;31.33;;;3.30;99.90;;;;;;2618661;31;20594;-77
2022/11/21 03:53:04;;;;;;;54.43;29.03;;;3.30;99.90;;;;;;2617190;54;20124;-77
2022/11/21 03:58:52;;;;;;;49.17;26.83;;;3.20;99.90;;;;;;2617633;54;20134;-76
2022/11/21 04:08:22;;;;;;;43.93;28.00;;;3.10;99.90;;;;;;2616582;54;20494;-77
2022/11/21 04:14:09;;;;;;;48.80;26.50;;;3.10;99.90;;;;;;2616100;54;20945;-78
2022/11/21 04:19:57;;;;;;;43.63;25.07;;;3.10;99.90;;;;;;2616116;54;20738;-76
2022/11/21 04:25:44;;;;;;;45.20;26.23;;;3.20;99.90;;;;;;2616477;46;20162;-75
2022/11/21 04:31:31;;;;;;;49.13;27.30;;;3.00;99.90;;;;;;2616226;54;20387;-75
2022/11/21 04:37:18;;;;;;;48.13;28.00;;;3.10;99.90;;;;;;2616118;54;20146;-76
2022/11/21 04:43:06;;;;;;;47.77;27.87;;;3.20;99.90;;;;;;2616816;54;20122;-76
2022/11/21 04:48:54;;;;;;;44.13;26.60;;;3.10;99.90;;;;;;2617632;54;20150;-77
2022/11/21 04:54:46;;;;;;;49.80;29.33;;;3.10;99.90;;;;;;2617410;54;20146;-77
2022/11/21 05:00:35;;;;;;;56.03;31.37;;;3.10;99.90;;;;;;2617362;54;20351;-79
2022/11/21 05:03:50;;;;;;;55.80;29.03;;;3.10;99.90;;;;;;2615835;47;20468;-77
2022/11/21 05:06:16;;;;;;;48.17;28.07;;;3.20;99.90;;;;;;2616087;47;20419;-77
2022/11/21 05:21:31;;;;;;;52.63;28.67;;;3.20;99.90;;;;;;2616409;54;20431;-76
2022/11/21 05:27:18;;;;;;;47.50;26.87;;;3.20;99.90;;;;;;2616125;54;20594;-77
2022/11/21 05:33:06;;;;;;;51.10;28.27;;;3.40;99.90;;;;;;2616031;54;20645;-76
2022/11/21 05:38:55;;;;;;;53.43;29.37;;;3.30;99.90;;;;;;2616915;54;20137;-75
2022/11/21 05:44:43;;;;;;;42.30;26.10;;;3.10;99.90;;;;;;2618065;39;20759;-76
2022/11/21 05:50:31;;;;;;;60.87;28.53;;;3.10;99.90;;;;;;2617552;39;20767;-77
2022/11/21 05:56:19;;;;;;;61.87;29.90;;;3.10;99.90;;;;;;2617295;54;20134;-76
2022/11/21 06:08:13;;;;;;;58.23;28.37;;;3.20;99.90;;;;;;2616653;54;20378;-77
2022/11/21 06:14:01;;;;;;;54.63;28.13;;;3.20;99.90;;;;;;2617599;54;20162;-78
2022/11/21 06:19:49;;;;;;;66.40;30.03;;;3.20;99.90;;;;;;2617638;54;20459;-77
2022/11/21 06:25:36;;;;;;;55.70;30.10;;;3.20;99.90;;;;;;2616000;39;20536;-78
2022/11/21 06:31:26;;;;;;;51.60;29.60;;;3.20;99.90;;;;;;2617098;54;20740;-76
2022/11/21 06:37:13;;;;;;;64.63;28.97;;;3.30;99.90;;;;;;2617049;54;20440;-76
2022/11/21 06:43:01;;;;;;;55.93;29.10;;;3.30;99.90;;;;;;2616220;54;20165;-76
2022/11/21 06:48:49;;;;;;;56.80;32.37;;;3.30;99.90;;;;;;2616957;54;20133;-76
2022/11/21 06:54:37;;;;;;;56.90;30.73;;;3.40;99.90;;;;;;2616760;54;20122;-77
2022/11/21 07:00:27;;;;;;;70.47;33.20;;;3.50;99.90;;;;;;2616732;54;20138;-79
2022/11/21 07:09:37;;;;;;;74.33;33.80;;;3.80;99.90;;;;;;2618087;54;20375;-76
2022/11/21 07:15:25;;;;;;;60.13;30.60;;;3.80;99.90;;;;;;2617674;54;20466;-76
2022/11/21 07:21:12;;;;;;;71.30;33.17;;;4.00;99.90;;;;;;2617494;54;20223;-76
2022/11/21 07:27:01;;;;;;;74.87;32.43;;;4.20;99.90;;;;;;2617484;54;20226;-76
2022/11/21 07:39:20;;;;;;;71.10;30.57;;;4.20;99.90;;;;;;2616737;39;20759;-78
2022/11/21 07:45:08;;;;;;;67.97;33.30;;;4.20;99.90;;;;;;2616770;54;20426;-76
2022/11/21 07:47:34;;;;;;;62.57;29.43;;;4.30;99.90;;;;;;2616023;47;20418;-77
2022/11/21 07:49:59;;;;;;;72.90;32.40;;;4.30;99.90;;;;;;2616044;54;20538;-76
2022/11/21 07:55:47;;;;;;;75.13;31.70;;;4.30;99.90;;;;;;2615677;54;20274;-77
2022/11/21 08:01:34;;;;;;;64.67;31.50;;;4.40;99.90;;;;;;2616036;54;20644;-78
2022/11/21 08:07:22;;;;;;;54.57;26.93;;;4.40;99.90;;;;;;2614719;54;20277;-74
2022/11/21 08:09:48;;;;;;;64.33;30.57;;;4.50;99.90;;;;;;2615909;46;20590;-78
2022/11/21 08:12:14;;;;;;;54.43;28.57;;;4.50;99.90;;;;;;2616047;39;20716;-79
2022/11/21 08:18:13;;;;;;;62.23;31.83;;;4.50;99.90;;;;;;2616962;54;21052;-76
2022/11/21 08:24:01;;;;;;;61.83;30.00;;;4.60;99.90;;;;;;2617157;54;20415;-77
2022/11/21 08:29:50;;;;;;;65.23;28.40;;;4.70;99.90;;;;;;2617477;54;20947;-75
2022/11/21 08:35:38;;;;;;;59.93;28.77;;;4.70;99.90;;;;;;2617587;54;20431;-75
2022/11/21 08:44:10;;;;;;;55.53;28.13;;;4.90;99.90;;;;;;2616591;54;20393;-77
2022/11/21 08:46:36;;;;;;;54.53;29.90;;;4.90;99.90;;;;;;2616431;54;20395;-77
2022/11/21 08:52:24;;;;;;;56.87;29.00;;;4.90;99.90;;;;;;2616922;54;20807;-78
2022/11/21 08:58:11;;;;;;;47.73;28.40;;;4.90;99.90;;;;;;2617046;54;20126;-76
2022/11/21 09:04:02;;;;;;;67.40;29.30;;;4.90;99.90;;;;;;2614305;54;20135;-80
2022/11/21 09:09:49;;;;;;;62.10;31.47;;;4.90;99.90;;;;;;2616533;54;20919;-81
2022/11/21 09:21:43;;;;;;;65.80;29.73;;;5.10;99.90;;;;;;2616462;54;20392;-80
2022/11/21 09:27:30;;;;;;;59.20;28.93;;;5.20;99.90;;;;;;2616481;54;20581;-82
2022/11/21 09:33:18;;;;;;;61.60;31.60;;;5.30;99.90;;;;;;2615699;54;20131;-80
2022/11/21 09:39:06;;;;;;;67.37;30.97;;;5.20;99.90;;;;;;2616599;39;20782;-80
2022/11/21 09:41:51;;;;;;;65.47;31.07;;;5.30;99.90;;;;;;2615481;46;20427;-78
2022/11/21 09:57:23;;;;;;;62.17;29.53;;;5.80;99.90;;;;;;2614323;54;20406;-80
2022/11/21 10:03:11;;;;;;;77.60;30.90;;;5.80;99.90;;;;;;2614580;54;20387;-78
2022/11/21 10:09:22;;;;;;;53.27;28.87;;;6.40;99.90;;;;;;2614130;54;20501;-80
2022/11/21 10:15:31;;;;;;;55.07;27.23;;;6.70;99.90;;;;;;2615099;54;20365;-79
2022/11/21 10:18:06;;;;;;;48.07;28.03;;;6.70;99.90;;;;;;2613548;39;22364;-79
2022/11/21 10:24:40;;;;;;;49.67;27.33;;;6.80;99.90;;;;;;2614913;54;20402;-80
2022/11/21 10:30:30;;;;;;;44.47;22.60;;;7.00;99.90;;;;;;2613865;54;20375;-81
2022/11/21 10:36:23;;;;;;;56.33;26.03;;;7.20;99.90;;;;;;2614842;54;20956;-80
2022/11/21 10:42:29;;;;;;;39.80;23.63;;;7.10;99.90;;;;;;2613167;54;20366;-80
2022/11/21 10:47:48;;;;;;;36.23;21.27;;;7.50;99.90;;;;;;2613648;54;20985;-79
2022/11/21 11:10:18;;;;;;;20.90;15.37;;;9.00;99.90;;;;;;2615744;54;20399;-79
2022/11/21 11:19:28;;;;;;;24.10;15.70;;;8.30;99.90;;;;;;2614896;54;21031;-80
2022/11/21 11:25:16;;;;;;;20.60;18.30;;;8.30;99.90;;;;;;2616328;54;21025;-79
2022/11/21 11:31:04;;;;;;;24.30;16.40;;;8.30;99.90;;;;;;2612877;54;20130;-81
2022/11/21 11:57:12;;;;;;;20.20;15.77;;;9.60;99.90;;;;;;2615298;54;21041;-80
2022/11/21 12:13:14;;;;;;;14.93;10.67;;;11.70;99.90;;;;;;2616322;54;20404;-76
2022/11/21 12:25:22;;;;;;;13.70;10.83;;;9.30;99.90;;;;;;2616824;54;20503;-75
2022/11/21 12:57:14;;;;;;;16.70;12.03;;;8.70;99.90;;;;;;2617017;54;20391;-78
2022/11/21 13:26:27;;;;;;;12.23;9.77;;;8.70;99.90;;;;;;2618337;54;20375;-78
2022/11/21 13:32:45;;;;;;;14.23;10.63;;;9.00;99.90;;;;;;2618341;54;20415;-77
2022/11/21 13:38:54;;;;;;;13.80;10.90;;;9.10;99.90;;;;;;2618324;54;20595;-77
2022/11/21 13:44:42;;;;;;;17.33;10.20;;;8.70;99.90;;;;;;2618223;54;20431;-78
2022/11/21 14:04:04;;;;;;;12.70;9.20;;;8.70;99.90;;;;;;2616919;54;20412;-78
2022/11/21 14:13:37;;;;;;;17.00;10.90;;;8.70;99.90;;;;;;2616562;54;20458;-78
2022/11/21 14:19:26;;;;;;;11.93;10.73;;;8.60;99.90;;;;;;2616925;54;20394;-78
2022/11/21 14:31:28;;;;;;;14.20;11.70;;;8.40;99.90;;;;;;2616798;54;20391;-79
2022/11/21 14:37:17;;;;;;;18.50;12.90;;;8.10;99.90;;;;;;2617013;54;20121;-79
2022/11/21 14:49:55;;;;;;;12.87;10.40;;;7.70;99.90;;;;;;2618523;54;20367;-83
2022/11/21 14:55:50;;;;;;;11.17;10.00;;;7.60;99.90;;;;;;2618758;54;20416;-84
2022/11/21 15:01:37;;;;;;;12.03;9.50;;;7.40;99.90;;;;;;2618182;54;20479;-84
2022/11/21 15:13:49;;;;;;;11.90;9.57;;;6.90;99.90;;;;;;2618693;54;20964;-83
2022/11/21 15:19:37;;;;;;;14.07;10.50;;;6.70;99.90;;;;;;2618721;54;20394;-83
2022/11/21 15:32:14;;;;;;;15.73;9.87;;;6.60;99.90;;;;;;2618972;54;20927;-84
2022/11/21 15:44:27;;;;;;;11.57;9.17;;;6.30;99.90;;;;;;2618914;54;20939;-78
2022/11/21 15:50:15;;;;;;;16.80;8.80;;;6.30;99.90;;;;;;2619109;54;20226;-80
2022/11/21 15:56:04;;;;;;;8.53;7.67;;;6.20;99.90;;;;;;2619795;31;20841;-79
2022/11/21 16:01:51;;;;;;;8.63;7.10;;;6.20;99.90;;;;;;2617506;54;20371;-78
2022/11/21 16:07:40;;;;;;;11.57;7.93;;;6.20;99.90;;;;;;2618481;54;20504;-77
2022/11/21 16:16:48;;;;;;;12.50;7.63;;;6.10;99.90;;;;;;2617088;54;20447;-78
2022/11/21 16:22:35;;;;;;;9.67;7.30;;;6.10;99.90;;;;;;2616717;46;20138;-79
2022/11/21 16:28:25;;;;;;;8.30;6.43;;;6.00;99.90;;;;;;2617347;54;20122;-80
2022/11/21 16:34:16;;;;;;;9.20;6.80;;;6.00;99.90;;;;;;2618638;54;20350;-78
2022/11/21 16:40:05;;;;;;;14.07;7.67;;;6.10;99.90;;;;;;2618072;54;20387;-81
2022/11/21 16:45:53;;;;;;;11.60;6.67;;;6.20;99.90;;;;;;2618444;54;20375;-79
2022/11/21 16:51:41;;;;;;;13.47;6.30;;;6.40;99.90;;;;;;2618202;54;20386;-80
2022/11/21 16:57:28;;;;;;;5.40;4.90;;;6.50;99.90;;;;;;2618393;54;20126;-79
2022/11/21 17:03:16;;;;;;;6.83;5.83;;;6.40;99.90;;;;;;2618716;39;20491;-79
2022/11/21 17:09:05;;;;;;;7.33;5.50;;;6.40;99.90;;;;;;2618169;54;20122;-79
2022/11/21 17:14:53;;;;;;;13.07;6.57;;;6.30;99.90;;;;;;2617972;54;20367;-78
2022/11/21 17:20:41;;;;;;;9.50;5.30;;;6.30;99.90;;;;;;2619098;39;20772;-80
2022/11/21 17:26:29;;;;;;;7.93;6.70;;;6.40;99.90;;;;;;2617736;54;20146;-80
2022/11/21 17:32:17;;;;;;;6.13;5.53;;;6.30;99.90;;;;;;2617843;54;20138;-80
2022/11/21 17:38:05;;;;;;;6.07;5.50;;;6.40;99.90;;;;;;2618224;54;20226;-79
2022/11/21 17:43:54;;;;;;;7.40;5.60;;;6.40;99.90;;;;;;2616896;39;20533;-79
2022/11/21 17:49:41;;;;;;;7.97;6.10;;;6.50;99.90;;;;;;2616384;54;20432;-80
2022/11/21 17:58:50;;;;;;;5.70;4.67;;;6.50;99.90;;;;;;2616573;54;20370;-79
2022/11/21 18:04:37;;;;;;;7.00;4.70;;;6.50;99.90;;;;;;2616883;54;20949;-79
2022/11/21 18:10:24;;;;;;;6.23;4.70;;;6.50;99.90;;;;;;2616699;54;20139;-79
2022/11/21 18:16:18;;;;;;;11.43;5.70;;;6.50;99.90;;;;;;2618142;54;20123;-78
2022/11/21 18:22:06;;;;;;;9.43;5.37;;;6.50;99.90;;;;;;2617666;54;20408;-77
2022/11/21 18:27:54;;;;;;;9.57;4.43;;;6.40;99.90;;;;;;2617563;54;20732;-80
2022/11/21 18:33:43;;;;;;;15.17;6.23;;;6.40;99.90;;;;;;2657328;31;20950;-78
2022/11/21 18:39:30;;;;;;;5.93;5.27;;;6.40;99.90;;;;;;2617996;54;20406;-78
2022/11/21 18:45:19;;;;;;;7.87;5.33;;;6.50;99.90;;;;;;2617859;54;20146;-79
2022/11/21 18:51:15;;;;;;;5.23;4.00;;;6.70;99.90;;;;;;2618081;54;20457;-80
2022/11/21 18:57:03;;;;;;;6.47;4.90;;;6.80;99.90;;;;;;2618478;54;20848;-78
2022/11/21 19:02:51;;;;;;;7.30;4.47;;;6.90;99.90;;;;;;2618180;54;20382;-78
2022/11/21 19:08:39;;;;;;;7.90;3.93;;;6.90;99.90;;;;;;2617513;54;20151;-79
2022/11/21 19:14:26;;;;;;;5.63;3.67;;;7.20;99.90;;;;;;2617928;54;20379;-79
2022/11/21 19:16:52;;;;;;;6.27;3.60;;;7.30;99.90;;;;;;2617846;47;20417;-77
2022/11/21 19:19:18;;;;;;;8.70;4.63;;;7.30;99.90;;;;;;2617143;47;20319;-81
2022/11/21 19:25:06;;;;;;;4.90;4.43;;;7.10;99.90;;;;;;2617691;54;20122;-81
2022/11/21 19:30:52;;;;;;;6.07;3.67;;;7.20;99.90;;;;;;2618291;54;21061;-78
2022/11/21 19:40:11;;;;;;;5.33;3.60;;;7.20;99.90;;;;;;2617066;54;20414;-79
2022/11/21 19:46:06;;;;;;;3.77;3.37;;;7.30;99.90;;;;;;2618314;54;20374;-80
2022/11/21 19:51:54;;;;;;;9.50;4.60;;;7.40;99.90;;;;;;2618060;54;20399;-79
2022/11/21 19:57:42;;;;;;;4.33;3.93;;;7.50;99.90;;;;;;2618156;54;20154;-79
2022/11/21 20:03:34;;;;;;;5.70;4.73;;;7.50;99.90;;;;;;2618093;54;20130;-79
2022/11/21 20:09:23;;;;;;;11.73;4.50;;;7.50;99.90;;;;;;2618242;54;20392;-78
2022/11/21 20:15:14;;;;;;;5.47;4.03;;;7.50;99.90;;;;;;2618879;39;20763;-80
2022/11/21 20:21:08;;;;;;;6.73;4.27;;;7.40;99.90;;;;;;2618346;54;20405;-80
2022/11/21 20:26:57;;;;;;;8.90;4.13;;;7.40;99.90;;;;;;2618329;54;20387;-80
2022/11/21 20:32:45;;;;;;;9.10;4.90;;;7.30;99.90;;;;;;2618432;54;20463;-78
2022/11/21 20:38:34;;;;;;;6.40;4.97;;;7.40;99.90;;;;;;2618022;54;20663;-79
2022/11/21 20:44:22;;;;;;;10.10;5.30;;;7.30;99.90;;;;;;2618247;54;20986;-79
2022/11/21 20:50:10;;;;;;;7.60;5.60;;;7.40;99.90;;;;;;2618457;54;20122;-80
2022/11/21 20:56:00;;;;;;;7.60;5.33;;;7.40;99.90;;;;;;2618509;39;20441;-80
2022/11/21 21:01:47;;;;;;;7.97;4.60;;;7.50;99.90;;;;;;2618790;54;20358;-78
2022/11/21 21:07:35;;;;;;;9.50;5.30;;;7.50;99.90;;;;;;2618930;46;20139;-80
2022/11/21 21:13:23;;;;;;;4.90;4.00;;;7.50;99.90;;;;;;2618374;54;20154;-79
2022/11/21 21:19:10;;;;;;;6.60;4.70;;;7.80;99.90;;;;;;2622434;46;20196;-84
2022/11/21 21:24:58;;;;;;;8.30;5.70;;;7.80;99.90;;;;;;2618369;54;20158;-80
2022/11/21 21:30:46;;;;;;;8.60;4.70;;;7.80;99.90;;;;;;2618154;54;20740;-78
2022/11/21 21:36:34;;;;;;;5.10;4.40;;;7.70;99.90;;;;;;2618001;54;20122;-81
2022/11/21 21:42:22;;;;;;;4.43;3.90;;;7.90;99.90;;;;;;2617475;54;20243;-79
2022/11/21 21:48:10;;;;;;;5.30;4.80;;;7.90;99.90;;;;;;2617736;54;20143;-79
2022/11/21 21:53:58;;;;;;;8.27;5.13;;;7.90;99.90;;;;;;2617870;54;20370;-78
2022/11/21 21:59:46;;;;;;;5.50;3.93;;;7.80;99.90;;;;;;2616594;54;20374;-78
2022/11/21 22:05:33;;;;;;;6.03;5.43;;;7.90;99.90;;;;;;2616566;54;20150;-79
2022/11/21 22:14:42;;;;;;;13.17;5.50;;;8.00;99.90;;;;;;2616924;39;20839;-80
2022/11/21 22:20:29;;;;;;;4.60;4.20;;;8.00;99.90;;;;;;2616728;54;20159;-80
2022/11/21 22:26:16;;;;;;;9.03;4.67;;;7.90;99.90;;;;;;2616482;54;20710;-78
2022/11/21 22:32:05;;;;;;;8.03;5.40;;;8.00;99.90;;;;;;2617851;54;20395;-80
2022/11/21 22:37:52;;;;;;;7.00;4.43;;;8.00;99.90;;;;;;2618000;54;20150;-79
2022/11/21 22:43:43;;;;;;;7.13;5.00;;;8.00;99.90;;;;;;2617879;54;20118;-79
2022/11/21 22:49:31;;;;;;;5.13;4.67;;;7.90;99.90;;;;;;2617572;54;20489;-78
2022/11/21 22:55:19;;;;;;;5.33;4.83;;;7.90;99.90;;;;;;2618130;54;20138;-78
2022/11/21 23:07:21;;;;;;;9.73;2.90;;;7.60;99.90;;;;;;2617855;54;20386;-77
2022/11/21 23:13:09;;;;;;;5.00;2.97;;;7.30;99.90;;;;;;2617565;54;20134;-76
2022/11/21 23:18:57;;;;;;;5.03;3.40;;;7.30;99.90;;;;;;2617763;54;20186;-78
2022/11/21 23:24:45;;;;;;;3.40;1.90;;;7.20;99.90;;;;;;2617684;54;20373;-78
2022/11/21 23:30:33;;;;;;;5.23;3.30;;;7.10;99.90;;;;;;2617695;54;20230;-77
2022/11/21 23:36:21;;;;;;;5.30;2.83;;;7.10;99.90;;;;;;2618735;54;20119;-78
2022/11/21 23:42:08;;;;;;;3.60;2.93;;;7.10;99.90;;;;;;2618279;54;20131;-79
2022/11/21 23:47:56;;;;;;;4.00;2.20;;;7.10;99.90;;;;;;2617231;54;20347;-77
2022/11/21 23:53:43;;;;;;;4.80;2.60;;;7.00;99.90;;;;;;2618588;54;20535;-77
2022/11/21 23:59:34;;;;;;;3.30;2.50;;;7.10;99.90;;;;;;2618853;54;20575;-76
